Terminal Aerodrome Forecast
Issued by NWS

Home | Current Version | Previous Version | Text Only | Print | Product List | Glossary On
Versions: 1 2 3 4 5 6 7 8 9 10 11 12 13 14 15
000
FTUS46 KLOX 270521
TAFWJF
TAF
KWJF 270521Z 2706/2806 24018G25KT P6SM SKC
     FM271000 24012KT P6SM SKC
     FM271700 VRB04KT P6SM SKC
     FM272000 23015G25KT P6SM SKC
     FM280300 25012KT P6SM SKC=

USA.gov is the U.S. government's official web portal to all federal, state and local government web resources and services.